Folly Island, SC current weather conditions

sailwx.info

Wind from 290 at 4 knots gusting 6

Air temperature 24.2° C
Dewpoint 24.2° C

Last reported at 2020-May-27 14:00 UTC.
Time now 2020-May-27 15:30 UTC

Location: N 32°41' W 079°53'.
View on Google Maps.

See reports from other nearby stations

  
Tides and Currents Weather Stations Pressure Air Temp Water Temp Dewpoint Dewpoint Depression Visibility Wind Speed Wind Dir Waves Ship Positions
date/time (UTC)wind fromknots sea level pressurealtimeterstation pressurevisibilityair tempwater tempwave heightnotes
2020-May-27 14:00 290 4 gusting 6 24.2
2020-May-27 13:00 010 17 gusting 19 23.6
2020-May-27 12:00 070 13 gusting 15 23.8
2020-May-27 11:00 050 20 gusting 24 23.3
2020-May-27 10:00 050 24 gusting 27 23.1
2020-May-27 09:00 060 20 gusting 25 23.0
2020-May-27 08:00 070 18 gusting 21 23.3
2020-May-27 07:00 060 19 gusting 20 23.8
2020-May-27 06:00 060 17 gusting 18 23.7
2020-May-27 05:00 070 15 gusting 18 23.6
2020-May-27 04:00 050 15 gusting 18 23.8
2020-May-27 03:00 050 19 gusting 20 23.5
2020-May-27 02:00 050 20 gusting 25 23.2
2020-May-27 01:00 050 21 gusting 24 23.0
2020-May-27 00:00 050 25 gusting 27 23.0
2020-May-26 23:00 050 25 gusting 27 22.7
2020-May-26 22:00 050 25 gusting 28 22.9
2020-May-26 21:00 050 22 gusting 26 22.9
2020-May-26 20:00 040 25 gusting 27 22.6
2020-May-26 19:00 050 24 gusting 27 22.7
2020-May-26 18:00 050 21 gusting 26 22.9
2020-May-26 17:00 050 21 gusting 24 22.8
2020-May-26 16:00 050 20 gusting 24 23.0
2020-May-26 15:00 050 19 gusting 22 22.9
2020-May-26 14:00 060 19 gusting 21 22.9
2020-May-26 13:00 050 19 gusting 22 22.8
2020-May-26 12:00 060 20 gusting 20 23.0
2020-May-26 11:00 060 20 gusting 21 23.0
2020-May-26 10:00 060 20 gusting 24 23.1
2020-May-26 09:00 060 20 gusting 22 23.3
2020-May-26 08:00 060 19 gusting 21 23.5
2020-May-26 07:00 060 19 gusting 20 23.6
2020-May-26 06:00 060 18 gusting 19 23.5
2020-May-26 05:00 070 15 gusting 17 23.5
2020-May-26 04:00 080 17 gusting 18 23.4